Riviera Beach, Texas
Current Conditions -  °F | °C
As of 10:56 PM on Monday 20 Oct 2014 (Local Time) from KNQI Reporting Station
Scattered Clouds Scattered Clouds  
Wind Chill: 73°   Ceiling: Unl
Heat Index: 73°   Visibility: 10mi
Dew Point: 72°   Wind: 7mph
Humidity: 96%   Direction: 80°E
Pressure: 29.97"   Gusts: NA
Location:  27.3193°N, 97.8839°W
Report Text: KNQI 210356Z 08006KT 10SM FEW017 SCT250 23/22 A2997 RMK AO2 SLP147 T02280222
Loading
Personal Weather Stations






























Interactive Weather Map
Tropical Storm Tracking
New forecast layout! Learn more

10-Day Weather Forecast

Advertisements
Track Severe Weather on mobile